createdAt,value
2023-02-08T00:01:03.464Z,6.6
2023-02-08T00:02:10.630Z,6.6
2023-02-08T00:03:17.242Z,6.6
2023-02-08T00:05:31.475Z,6.6
2023-02-08T00:06:38.516Z,6.6
2023-02-08T00:07:45.583Z,6.7
2023-02-08T00:08:52.240Z,6.7
2023-02-08T00:09:59.433Z,6.7
2023-02-08T00:11:06.456Z,6.7
2023-02-08T00:12:13.488Z,6.7
2023-02-08T00:13:20.666Z,6.6
2023-02-08T00:14:27.205Z,6.7
2023-02-08T00:15:34.455Z,6.7
2023-02-08T00:16:41.542Z,6.7
2023-02-08T00:17:48.544Z,6.7
2023-02-08T00:18:55.605Z,6.7
2023-02-08T00:20:02.236Z,6.7
2023-02-08T00:21:09.384Z,6.6
2023-02-08T00:22:16.450Z,6.6
2023-02-08T00:23:23.555Z,6.6
2023-02-08T00:24:30.676Z,6.6
2023-02-08T00:25:37.251Z,6.6
2023-02-08T00:26:44.405Z,6.6
2023-02-08T00:27:51.516Z,6.5
2023-02-08T00:28:58.546Z,6.5
2023-02-08T00:30:05.683Z,6.6
2023-02-08T00:31:12.350Z,6.6
2023-02-08T00:32:19.372Z,6.6
2023-02-08T00:33:26.492Z,6.6
2023-02-08T00:34:33.543Z,6.7
2023-02-08T00:35:40.690Z,6.7
2023-02-08T00:36:47.271Z,6.7
2023-02-08T00:37:54.371Z,6.7
2023-02-08T00:39:01.444Z,6.7
2023-02-08T00:40:08.597Z,6.7
2023-02-08T00:41:15.617Z,6.7
2023-02-08T00:42:22.310Z,6.7
2023-02-08T00:43:29.351Z,6.7
2023-02-08T00:44:36.453Z,6.7
2023-02-08T00:45:43.025Z,6.7
2023-02-08T00:46:50.320Z,6.7
2023-02-08T00:47:57.303Z,6.7
2023-02-08T00:49:04.322Z,6.7
2023-02-08T00:50:11.499Z,6.7
2023-02-08T00:51:18.571Z,6.7
2023-02-08T00:52:25.174Z,6.7
2023-02-08T00:53:32.318Z,6.7
2023-02-08T00:54:39.409Z,6.7
2023-02-08T00:55:46.476Z,6.8
2023-02-08T00:56:53.539Z,6.8
2023-02-08T00:58:00.229Z,6.8
2023-02-08T01:00:16.268Z,6.8
2023-02-08T01:01:21.474Z,6.8
2023-02-08T01:02:28.688Z,6.7
2023-02-08T01:03:35.170Z,6.7
2023-02-08T01:04:42.247Z,6.7
2023-02-08T01:05:49.394Z,6.7
2023-02-08T01:06:56.539Z,6.7
2023-02-08T01:09:10.191Z,6.8
2023-02-08T01:10:17.259Z,6.8
2023-02-08T01:11:24.358Z,6.8
2023-02-08T01:12:31.553Z,6.8
2023-02-08T01:13:38.635Z,6.7
2023-02-08T01:14:45.195Z,6.7
2023-02-08T01:15:52.314Z,6.7
2023-02-08T01:16:59.387Z,6.7
2023-02-08T01:18:06.465Z,6.7
2023-02-08T01:19:13.587Z,6.7
2023-02-08T01:20:20.217Z,6.7
2023-02-08T01:21:27.336Z,6.8
2023-02-08T01:22:34.417Z,6.8
2023-02-08T01:23:41.556Z,6.8
2023-02-08T01:24:48.609Z,6.8
2023-02-08T01:25:55.189Z,6.7
2023-02-08T01:27:02.286Z,6.7
2023-02-08T01:28:09.452Z,6.7
2023-02-08T01:29:16.554Z,6.7
2023-02-08T01:30:23.635Z,6.7
2023-02-08T01:31:30.296Z,6.7
2023-02-08T01:32:37.367Z,6.7
2023-02-08T01:33:44.399Z,6.7
2023-02-08T01:34:51.571Z,6.7
2023-02-08T01:35:58.649Z,6.7
2023-02-08T01:37:05.198Z,6.7
2023-02-08T01:38:12.312Z,6.7
2023-02-08T01:39:19.427Z,6.7
2023-02-08T01:40:26.681Z,6.8
2023-02-08T01:41:33.594Z,6.8
2023-02-08T01:42:40.290Z,6.8
2023-02-08T01:43:47.302Z,6.8
2023-02-08T01:44:54.453Z,6.8
2023-02-08T01:46:01.559Z,6.8
2023-02-08T01:47:08.635Z,6.8
2023-02-08T01:48:15.301Z,6.7
2023-02-08T01:49:22.303Z,6.7
2023-02-08T01:50:29.474Z,6.8
2023-02-08T01:51:36.536Z,6.8
2023-02-08T01:52:43.681Z,6.8
2023-02-08T01:53:50.231Z,6.8
2023-02-08T01:54:57.301Z,6.8
2023-02-08T01:56:04.450Z,6.8
2023-02-08T01:57:11.588Z,6.9
2023-02-08T01:58:18.136Z,6.8
2023-02-08T01:59:25.249Z,6.9
2023-02-08T02:00:32.312Z,6.9
2023-02-08T02:01:39.454Z,7
2023-02-08T02:02:46.605Z,7
2023-02-08T02:03:53.135Z,6.9
2023-02-08T02:05:00.283Z,6.9
2023-02-08T02:06:07.336Z,6.9
2023-02-08T02:07:14.460Z,6.9
2023-02-08T02:08:21.118Z,7
2023-02-08T02:08:21.588Z,7
2023-02-08T02:09:28.682Z,7
2023-02-08T02:10:35.286Z,7
2023-02-08T02:12:49.535Z,7
2023-02-08T02:13:56.575Z,7
2023-02-08T02:15:03.682Z,7.1
2023-02-08T02:16:10.288Z,7.1
2023-02-08T02:17:17.370Z,7.1
2023-02-08T02:18:24.440Z,7.1
2023-02-08T02:19:31.626Z,7
2023-02-08T02:20:39.095Z,7.1
2023-02-08T02:21:45.251Z,7.1
2023-02-08T02:22:52.488Z,7.1
2023-02-08T02:23:59.520Z,7.1
2023-02-08T02:25:06.615Z,7.1
2023-02-08T02:26:13.667Z,7.1
2023-02-08T02:28:27.455Z,7.1
2023-02-08T02:29:34.487Z,7.1
2023-02-08T02:30:41.918Z,7
2023-02-08T02:31:48.341Z,7
2023-02-08T02:32:55.335Z,7.1
2023-02-08T02:34:02.355Z,7.1
2023-02-08T02:35:09.528Z,7
2023-02-08T02:36:16.623Z,7
2023-02-08T02:37:23.194Z,7
2023-02-08T02:38:30.673Z,7.1
2023-02-08T02:39:37.407Z,7
2023-02-08T02:40:44.469Z,7
2023-02-08T02:41:51.643Z,7
2023-02-08T02:42:58.288Z,7
2023-02-08T02:44:05.276Z,7.1
2023-02-08T02:45:12.392Z,7.2
2023-02-08T02:46:19.535Z,7.2
2023-02-08T02:47:26.675Z,7.2
2023-02-08T02:48:33.189Z,7.2
2023-02-08T02:49:40.310Z,7.2
2023-02-08T02:50:47.429Z,7.2
2023-02-08T02:53:01.750Z,7.2
2023-02-08T02:57:29.528Z,7
2023-02-08T02:58:36.643Z,7
2023-02-08T02:59:43.209Z,7
2023-02-08T03:00:50.379Z,7
2023-02-08T03:01:57.459Z,7
2023-02-08T03:04:11.753Z,7
2023-02-08T03:06:25.331Z,7
2023-02-08T03:07:32.465Z,7
2023-02-08T03:10:53.251Z,7
2023-02-08T03:12:00.374Z,7
2023-02-08T03:13:07.529Z,7
2023-02-08T03:14:14.562Z,7
2023-02-08T03:16:28.422Z,7
2023-02-08T03:17:35.359Z,7
2023-02-08T03:18:42.462Z,7
2023-02-08T03:19:49.560Z,7
2023-02-08T03:20:56.673Z,7
2023-02-08T03:22:03.226Z,7
2023-02-08T03:23:10.432Z,7
2023-02-08T03:24:17.509Z,7
2023-02-08T03:27:38.305Z,7
2023-02-08T03:29:52.474Z,7
2023-02-08T03:30:59.188Z,7
2023-02-08T03:32:06.690Z,7
2023-02-08T03:33:13.304Z,6.9
2023-02-08T03:34:20.396Z,6.9
2023-02-08T03:35:27.520Z,6.9
2023-02-08T03:36:34.591Z,7
2023-02-08T03:37:41.694Z,7
2023-02-08T03:39:55.413Z,7
2023-02-08T03:45:30.447Z,7.2
2023-02-08T03:46:37.517Z,7.2
2023-02-08T03:47:44.645Z,7.2
2023-02-08T03:48:51.213Z,7.2
2023-02-08T03:49:58.315Z,7.3
2023-02-08T03:51:05.397Z,7.3
2023-02-08T03:52:12.496Z,7.3
2023-02-08T03:53:19.665Z,7.3
2023-02-08T03:54:26.203Z,7.4
2023-02-08T03:56:40.426Z,7.4
2023-02-08T03:57:47.550Z,7.4
2023-02-08T03:58:54.596Z,7.4
2023-02-08T04:00:01.238Z,7.3
2023-02-08T04:01:08.345Z,7.4
2023-02-08T04:02:15.428Z,7.3
2023-02-08T04:03:22.553Z,7.3
2023-02-08T04:04:29.662Z,7.3
2023-02-08T04:05:36.245Z,7.3
2023-02-08T04:06:43.321Z,7.2
2023-02-08T04:07:50.558Z,7.2
2023-02-08T04:08:57.550Z,7.2
2023-02-08T04:10:04.658Z,7.2
2023-02-08T04:11:11.230Z,7.2
2023-02-08T04:12:17.831Z,7.2
2023-02-08T04:13:25.491Z,7.2
2023-02-08T04:14:32.537Z,7.2
2023-02-08T04:15:39.695Z,7.2
2023-02-08T04:16:46.231Z,7.3
2023-02-08T04:17:53.388Z,7.3
2023-02-08T04:20:07.583Z,7.4
2023-02-08T04:21:14.629Z,7.4
2023-02-08T04:22:21.228Z,7.4
2023-02-08T04:23:28.359Z,7.4
2023-02-08T04:24:35.452Z,7.4
2023-02-08T04:25:42.525Z,7.4
2023-02-08T04:26:49.749Z,7.4
2023-02-08T04:27:56.333Z,7.4
2023-02-08T04:29:03.308Z,7.4
2023-02-08T04:30:10.448Z,7.4
2023-02-08T04:31:17.699Z,7.4
2023-02-08T04:32:24.662Z,7.4
2023-02-08T04:33:31.248Z,7.4
2023-02-08T04:34:38.371Z,7.4
2023-02-08T04:35:45.433Z,7.4
2023-02-08T04:36:52.591Z,7.4
2023-02-08T04:37:59.739Z,7.4
2023-02-08T04:39:06.256Z,7.3
2023-02-08T04:40:16.351Z,7.4
2023-02-08T04:41:20.463Z,7.4
2023-02-08T04:42:27.597Z,7.4
2023-02-08T04:43:34.694Z,7.4
2023-02-08T04:44:41.291Z,7.4
2023-02-08T04:45:48.369Z,7.4
2023-02-08T04:46:55.464Z,7.4
2023-02-08T04:48:02.656Z,7.4
2023-02-08T04:49:09.723Z,7.4
2023-02-08T04:50:16.376Z,7.4
2023-02-08T04:51:23.356Z,7.4
2023-02-08T04:52:30.504Z,7.4
2023-02-08T04:53:37.088Z,7.4
2023-02-08T04:54:44.677Z,7.4
2023-02-08T04:55:51.315Z,7.4
2023-02-08T04:56:58.372Z,7.3
2023-02-08T04:58:05.561Z,7.3
2023-02-08T04:59:12.600Z,7.3
2023-02-08T05:00:19.168Z,7.2
2023-02-08T05:01:26.371Z,7.2
2023-02-08T05:02:33.367Z,7.2
2023-02-08T05:03:40.590Z,7.2
2023-02-08T05:04:47.673Z,7.2
2023-02-08T05:05:54.188Z,7.2
2023-02-08T05:07:01.314Z,7.2
2023-02-08T05:08:08.483Z,7.2
2023-02-08T05:09:15.476Z,7.2
2023-02-08T05:10:22.607Z,7.2
2023-02-08T05:11:29.192Z,7.2
2023-02-08T05:12:36.297Z,7.2
2023-02-08T05:13:43.415Z,7.2
2023-02-08T05:14:50.637Z,7.2
2023-02-08T05:15:57.695Z,7.2
2023-02-08T05:17:04.185Z,7.1
2023-02-08T05:18:11.313Z,7.2
2023-02-08T05:19:18.444Z,7.2
2023-02-08T05:20:25.513Z,7.2
2023-02-08T05:21:32.610Z,7.3
2023-02-08T05:24:53.480Z,7.3
2023-02-08T05:26:00.526Z,7.3
2023-02-08T05:27:07.630Z,7.3
2023-02-08T05:28:14.193Z,7.2
2023-02-08T05:29:21.320Z,7.2
2023-02-08T05:30:28.461Z,7.2
2023-02-08T05:31:35.673Z,7.2
2023-02-08T05:32:42.689Z,7.2
2023-02-08T05:33:49.229Z,7.2
2023-02-08T05:36:05.243Z,7.1
2023-02-08T05:37:10.558Z,7.2
2023-02-08T05:38:17.675Z,7.2
2023-02-08T05:39:24.238Z,7.2
2023-02-08T05:40:31.334Z,7.2
2023-02-08T05:41:38.466Z,7.2
2023-02-08T05:42:45.594Z,7.2
2023-02-08T05:43:52.657Z,7.2
2023-02-08T05:44:59.235Z,7.2
2023-02-08T05:46:06.361Z,7.2
2023-02-08T05:47:13.455Z,7.2
2023-02-08T05:48:20.616Z,7.2
2023-02-08T05:49:27.664Z,7.2
2023-02-08T05:50:34.249Z,7.2
2023-02-08T05:51:41.506Z,7.2
2023-02-08T05:52:48.536Z,7.2
2023-02-08T05:53:55.579Z,7.1
2023-02-08T05:55:02.677Z,7.1
2023-02-08T05:56:09.274Z,7.1
2023-02-08T05:57:16.376Z,7.1
2023-02-08T05:58:23.469Z,7.2
2023-02-08T05:59:30.561Z,7.2
2023-02-08T06:00:37.695Z,7.2
2023-02-08T06:01:44.259Z,7.2
2023-02-08T06:02:51.622Z,7.2
2023-02-08T06:03:58.523Z,7.3
2023-02-08T06:05:05.576Z,7.3
2023-02-08T06:06:12.690Z,7.3
2023-02-08T06:07:19.265Z,7.3
2023-02-08T06:08:26.383Z,7.3
2023-02-08T06:09:33.477Z,7.3
2023-02-08T06:10:40.947Z,7.4
2023-02-08T06:11:47.709Z,7.4
2023-02-08T06:12:54.324Z,7.3
2023-02-08T06:14:01.416Z,7.3
2023-02-08T06:15:08.473Z,7.3
2023-02-08T06:16:17.187Z,7.3
2023-02-08T06:17:22.695Z,7.3
2023-02-08T06:18:29.268Z,7.3
2023-02-08T06:19:36.413Z,7.2
2023-02-08T06:20:43.502Z,7.3
2023-02-08T06:21:50.613Z,7.3
2023-02-08T06:22:57.267Z,7.3
2023-02-08T06:24:04.304Z,7.3
2023-02-08T06:25:11.389Z,7.3
2023-02-08T06:27:25.604Z,7.2
2023-02-08T06:28:32.392Z,7.2
2023-02-08T06:29:39.293Z,7.1
2023-02-08T06:30:46.432Z,7.1
2023-02-08T06:31:53.655Z,7.1
2023-02-08T06:33:00.612Z,7.2
2023-02-08T06:34:07.228Z,7.2
2023-02-08T06:35:14.264Z,7.2
2023-02-08T06:36:21.445Z,7.2
2023-02-08T06:37:28.543Z,7.2
2023-02-08T06:38:35.668Z,7.2
2023-02-08T06:39:42.285Z,7.2
2023-02-08T06:40:49.325Z,7.2
2023-02-08T06:41:56.450Z,7.2
2023-02-08T06:43:03.487Z,7.2
2023-02-08T06:44:10.648Z,7.2
2023-02-08T06:45:17.230Z,7.2
2023-02-08T06:46:24.307Z,7.2
2023-02-08T06:47:31.438Z,7.2
2023-02-08T06:48:38.595Z,7.2
2023-02-08T06:49:45.642Z,7.2
2023-02-08T06:50:52.301Z,7.1
2023-02-08T06:53:06.446Z,7.2
2023-02-08T06:54:13.523Z,7.2
2023-02-08T06:55:20.681Z,7.2
2023-02-08T06:56:27.246Z,7.2
2023-02-08T06:57:34.336Z,7.2
2023-02-08T06:58:41.518Z,7.2
2023-02-08T06:59:48.538Z,7.2
2023-02-08T07:00:55.645Z,7.2
2023-02-08T07:02:02.345Z,7.2
2023-02-08T07:03:09.360Z,7.2
2023-02-08T07:04:16.471Z,7.1
2023-02-08T07:05:23.548Z,7.1
2023-02-08T07:06:30.701Z,7
2023-02-08T07:07:37.284Z,7
2023-02-08T07:15:26.485Z,7.2
2023-02-08T07:16:33.576Z,7.2
2023-02-08T07:17:40.690Z,7.3
2023-02-08T07:18:47.393Z,7.4
2023-02-08T07:19:54.339Z,7.4
2023-02-08T07:21:01.511Z,7.4
2023-02-08T07:22:08.619Z,7.5
2023-02-08T07:23:15.649Z,7.5
2023-02-08T07:24:22.286Z,7.5
2023-02-08T07:25:29.426Z,7.5
2023-02-08T07:26:36.489Z,7.4
2023-02-08T07:27:43.575Z,7.5
2023-02-08T07:28:50.764Z,7.4
2023-02-08T07:31:04.398Z,7.5
2023-02-08T07:32:11.682Z,7.5
2023-02-08T07:33:18.665Z,7.4
2023-02-08T07:34:25.667Z,7.4
2023-02-08T07:35:32.254Z,7.4
2023-02-08T07:36:39.392Z,7.4
2023-02-08T07:37:46.505Z,7.4
2023-02-08T07:38:53.651Z,7.4
2023-02-08T07:40:00.678Z,7.4
2023-02-08T07:41:07.299Z,7.5
2023-02-08T07:42:14.409Z,7.5
2023-02-08T07:43:21.592Z,7.5
2023-02-08T07:44:28.660Z,7.5
2023-02-08T07:45:35.682Z,7.5
2023-02-08T07:46:42.371Z,7.6
2023-02-08T07:47:49.404Z,7.5
2023-02-08T07:48:56.699Z,7.5
2023-02-08T07:50:03.608Z,7.5
2023-02-08T07:51:10.751Z,7.5
2023-02-08T07:52:17.310Z,7.5
2023-02-08T07:53:24.463Z,7.4
2023-02-08T07:54:31.524Z,7.4
2023-02-08T07:55:38.660Z,7.4
2023-02-08T07:56:45.252Z,7.4
2023-02-08T07:57:52.398Z,7.4
2023-02-08T07:58:59.458Z,7.4
2023-02-08T08:00:06.539Z,7.4
2023-02-08T08:01:22.031Z,7.4
2023-02-08T08:02:20.571Z,7.4
2023-02-08T08:03:27.364Z,7.5
2023-02-08T08:04:34.403Z,7.5
2023-02-08T08:05:41.595Z,7.5
2023-02-08T08:06:48.661Z,7.6
2023-02-08T08:07:55.197Z,7.5
2023-02-08T08:09:02.358Z,7.5
2023-02-08T08:10:09.493Z,7.6
2023-02-08T08:11:16.605Z,7.5
2023-02-08T08:12:23.668Z,7.4
2023-02-08T08:13:30.582Z,7.4
2023-02-08T08:14:37.336Z,7.4
2023-02-08T08:15:44.549Z,7.4
2023-02-08T08:16:51.562Z,7.4
2023-02-08T08:17:58.698Z,7.4
2023-02-08T08:19:05.233Z,7.4
2023-02-08T08:21:19.478Z,7.4
2023-02-08T08:22:26.630Z,7.4
2023-02-08T08:23:33.736Z,7.4
2023-02-08T08:24:40.262Z,7.4
2023-02-08T08:25:47.447Z,7.4
2023-02-08T08:26:54.432Z,7.4
2023-02-08T08:28:01.640Z,7.5
2023-02-08T08:29:08.678Z,7.5
2023-02-08T08:30:16.425Z,7.5
2023-02-08T08:31:22.538Z,7.5
2023-02-08T08:32:29.507Z,7.5
2023-02-08T08:34:43.725Z,7.5
2023-02-08T08:35:50.289Z,7.6
2023-02-08T08:36:57.380Z,7.6
2023-02-08T08:38:04.452Z,7.6
2023-02-08T08:39:11.611Z,7.6
2023-02-08T08:40:18.717Z,7.6
2023-02-08T08:41:25.293Z,7.7
2023-02-08T08:42:32.380Z,7.7
2023-02-08T08:43:39.550Z,7.7
2023-02-08T08:44:46.628Z,7.8
2023-02-08T08:45:53.693Z,7.8
2023-02-08T08:47:00.309Z,7.7
2023-02-08T08:48:07.435Z,7.8
2023-02-08T08:49:14.512Z,7.7
2023-02-08T08:50:21.625Z,7.8
2023-02-08T08:51:28.724Z,7.8
2023-02-08T08:52:35.307Z,7.8
2023-02-08T08:53:42.438Z,7.8
2023-02-08T08:54:49.506Z,7.8
2023-02-08T08:55:56.652Z,7.8
2023-02-08T08:57:03.731Z,7.9
2023-02-08T08:58:10.342Z,7.9
2023-02-08T08:59:17.433Z,7.9
2023-02-08T09:00:24.535Z,7.9
2023-02-08T09:01:33.548Z,7.9
2023-02-08T09:02:38.306Z,7.9
2023-02-08T09:03:45.349Z,7.9
2023-02-08T09:04:52.387Z,7.9
2023-02-08T09:05:59.551Z,8
2023-02-08T09:07:06.612Z,8
2023-02-08T09:08:13.253Z,8
2023-02-08T09:09:20.328Z,8
2023-02-08T09:10:27.456Z,8
2023-02-08T09:11:34.488Z,8
2023-02-08T09:12:41.748Z,8
2023-02-08T09:13:48.286Z,8
2023-02-08T09:14:55.329Z,8
2023-02-08T09:16:02.465Z,8
2023-02-08T09:17:09.536Z,8
2023-02-08T09:18:16.651Z,8
2023-02-08T09:19:23.227Z,8
2023-02-08T09:20:30.325Z,8
2023-02-08T09:21:37.476Z,8
2023-02-08T09:22:44.506Z,8
2023-02-08T09:23:51.738Z,8
2023-02-08T09:24:58.266Z,8.1
2023-02-08T09:26:05.338Z,8.1
2023-02-08T09:27:12.447Z,8.1
2023-02-08T09:28:19.577Z,8.1
2023-02-08T09:29:26.692Z,8.1
2023-02-08T09:30:33.203Z,8.1
2023-02-08T09:31:40.500Z,8.1
2023-02-08T09:32:47.444Z,8.1
2023-02-08T09:33:54.573Z,8.1
2023-02-08T09:35:01.671Z,8.1
2023-02-08T09:36:08.285Z,8.1
2023-02-08T09:38:22.496Z,8.1
2023-02-08T09:39:29.548Z,8.1
2023-02-08T09:40:36.659Z,8.1
2023-02-08T09:41:43.269Z,8.1
2023-02-08T09:42:50.376Z,8.1
2023-02-08T09:43:57.475Z,8.1
2023-02-08T09:45:04.541Z,8.1
2023-02-08T09:46:11.681Z,8.1
2023-02-08T09:47:18.317Z,8.1
2023-02-08T09:49:32.488Z,8.2
2023-02-08T09:50:39.747Z,8.1
2023-02-08T09:51:46.676Z,8.2
2023-02-08T09:52:53.234Z,8.2
2023-02-08T09:54:00.375Z,8.2
2023-02-08T09:55:07.521Z,8.2
2023-02-08T09:56:14.580Z,8.2
2023-02-08T09:57:21.729Z,8.2
2023-02-08T09:58:28.337Z,8.3
2023-02-08T09:59:35.393Z,8.2
2023-02-08T10:00:42.873Z,8.3
2023-02-08T10:01:49.585Z,8.3
2023-02-08T10:02:56.766Z,8.3
2023-02-08T10:04:03.255Z,8.3
2023-02-08T10:05:10.392Z,8.4
2023-02-08T10:06:17.538Z,8.4
2023-02-08T10:07:24.584Z,8.4
2023-02-08T10:08:35.156Z,8.4
2023-02-08T10:09:38.359Z,8.5
2023-02-08T10:10:45.374Z,8.5
2023-02-08T10:11:52.481Z,8.5
2023-02-08T10:12:59.603Z,8.5
2023-02-08T10:14:06.710Z,8.5
2023-02-08T10:15:13.304Z,8.5
2023-02-08T10:16:20.476Z,8.6
2023-02-08T10:17:27.536Z,8.6
2023-02-08T10:18:34.667Z,8.6
2023-02-08T10:19:41.199Z,8.6
2023-02-08T10:20:48.343Z,8.6
2023-02-08T10:21:55.390Z,8.6
2023-02-08T10:23:02.482Z,8.6
2023-02-08T10:24:09.628Z,8.6
2023-02-08T10:25:16.211Z,8.7
2023-02-08T10:26:23.312Z,8.7
2023-02-08T10:27:30.527Z,8.7
2023-02-08T10:28:37.568Z,8.7
2023-02-08T10:29:44.619Z,8.8
2023-02-08T10:30:51.214Z,8.8
2023-02-08T10:31:58.370Z,8.8
2023-02-08T10:33:05.430Z,8.8
2023-02-08T10:34:12.499Z,8.8
2023-02-08T10:35:19.637Z,8.8
2023-02-08T10:36:26.252Z,8.8
2023-02-08T10:37:33.301Z,8.8
2023-02-08T10:38:46.780Z,8.8
2023-02-08T10:39:47.558Z,8.8
2023-02-08T10:42:01.254Z,8.9
2023-02-08T10:43:08.394Z,8.9
2023-02-08T10:44:15.418Z,8.9
2023-02-08T10:45:24.678Z,9
2023-02-08T10:46:29.693Z,9
2023-02-08T10:47:36.241Z,9
2023-02-08T10:48:43.339Z,9
2023-02-08T10:49:50.492Z,9
2023-02-08T10:50:57.580Z,9
2023-02-08T10:52:04.759Z,9
2023-02-08T10:53:11.283Z,9
2023-02-08T10:54:18.405Z,9
2023-02-08T10:55:25.489Z,9
2023-02-08T10:56:32.556Z,9.1
2023-02-08T10:57:39.655Z,9.1
2023-02-08T10:58:46.827Z,9.1
2023-02-08T10:59:53.381Z,9.1
2023-02-08T11:01:00.487Z,9.1
2023-02-08T11:02:07.561Z,9.1
2023-02-08T11:03:14.664Z,9.1
2023-02-08T11:04:21.351Z,9.1
2023-02-08T11:05:28.385Z,9.2
2023-02-08T11:05:28.387Z,9.2
2023-02-08T11:06:35.444Z,9.1
2023-02-08T11:07:42.550Z,9.1
2023-02-08T11:08:49.778Z,9.2
2023-02-08T11:09:56.289Z,9.1
2023-02-08T11:11:03.367Z,9.1
2023-02-08T11:12:10.505Z,9.1
2023-02-08T11:13:17.600Z,9.2
2023-02-08T11:14:27.124Z,9.2
2023-02-08T11:15:31.332Z,9.2
2023-02-08T11:17:45.518Z,9.2
2023-02-08T11:18:52.621Z,9.2
2023-02-08T11:19:59.754Z,9.2
2023-02-08T11:21:06.315Z,9.2
2023-02-08T11:22:13.382Z,9.2
2023-02-08T11:23:20.518Z,9.2
2023-02-08T11:24:27.602Z,9.2
2023-02-08T11:25:35.940Z,9.2
2023-02-08T11:26:41.338Z,9.2
2023-02-08T11:27:48.468Z,9.2
2023-02-08T11:28:55.519Z,9.2
2023-02-08T11:30:02.630Z,9.2
2023-02-08T11:31:09.234Z,9.2
2023-02-08T11:32:16.367Z,9.2
2023-02-08T11:33:23.439Z,9.2
2023-02-08T11:34:30.532Z,9.2
2023-02-08T11:35:37.670Z,9.2
2023-02-08T11:36:44.267Z,9.2
2023-02-08T11:37:51.319Z,9.2
2023-02-08T11:38:58.481Z,9.2
2023-02-08T11:40:05.515Z,9.2
2023-02-08T11:41:12.620Z,9.2
2023-02-08T11:42:19.195Z,9.2
2023-02-08T11:43:26.359Z,9.2
2023-02-08T11:45:40.733Z,9.1
2023-02-08T11:46:54.299Z,9.2
2023-02-08T11:47:54.218Z,9.1
2023-02-08T11:49:01.381Z,9.1
2023-02-08T11:50:08.480Z,9.1
2023-02-08T11:51:15.556Z,9.1
2023-02-08T11:52:22.617Z,9.2
2023-02-08T11:53:29.275Z,9.2
2023-02-08T11:54:36.326Z,9.2
2023-02-08T11:55:43.729Z,9.2
2023-02-08T11:56:50.575Z,9.2
2023-02-08T11:57:57.682Z,9.1
2023-02-08T11:59:04.198Z,9.2
2023-02-08T12:00:11.359Z,9.2
2023-02-08T12:01:18.413Z,9.2
2023-02-08T12:02:25.609Z,9.2
2023-02-08T12:03:32.751Z,9.1
2023-02-08T12:04:39.253Z,9.2
2023-02-08T12:05:46.415Z,9.2
2023-02-08T12:06:53.445Z,9.1
2023-02-08T12:08:00.549Z,9.2
2023-02-08T12:09:07.710Z,9.1
2023-02-08T12:10:14.874Z,9.1
2023-02-08T12:11:21.377Z,9.2
2023-02-08T12:12:28.505Z,9.2
2023-02-08T12:13:35.599Z,9.2
2023-02-08T12:14:42.710Z,9.2
2023-02-08T12:15:58.337Z,9.2
2023-02-08T12:16:56.351Z,9.2
2023-02-08T12:18:03.479Z,9.1
2023-02-08T12:19:10.605Z,9.1
2023-02-08T12:20:17.733Z,9.1
2023-02-08T12:21:24.303Z,9.1
2023-02-08T12:22:31.414Z,9.1
2023-02-08T12:23:38.553Z,9.1
2023-02-08T12:24:45.564Z,9.2
2023-02-08T12:25:52.661Z,9.1
2023-02-08T12:26:59.304Z,9.1
2023-02-08T12:28:06.452Z,9.1
2023-02-08T12:29:13.471Z,9.1
2023-02-08T12:30:20.634Z,9.2
2023-02-08T12:31:28.004Z,9.2
2023-02-08T12:32:34.290Z,9.1
2023-02-08T12:33:41.498Z,9.1
2023-02-08T12:34:48.535Z,9.1
2023-02-08T12:36:04.253Z,9.1
2023-02-08T12:37:02.700Z,9.2
2023-02-08T12:38:09.307Z,9.2
2023-02-08T12:39:20.096Z,9.1
2023-02-08T12:40:23.488Z,9.1
2023-02-08T12:41:30.585Z,9.1
2023-02-08T12:42:37.741Z,9.1
2023-02-08T12:43:44.328Z,9.1
2023-02-08T12:45:58.537Z,9.1
2023-02-08T12:47:05.615Z,9.1
2023-02-08T12:49:19.337Z,9.1
2023-02-08T12:50:26.415Z,9.1
2023-02-08T12:51:33.477Z,9.1
2023-02-08T12:52:40.583Z,9.1
2023-02-08T12:53:47.255Z,9
2023-02-08T12:54:54.302Z,9
2023-02-08T12:56:01.441Z,9
2023-02-08T12:57:08.542Z,9
2023-02-08T12:58:15.621Z,9
2023-02-08T12:59:22.214Z,9
2023-02-08T13:00:29.324Z,9
2023-02-08T13:01:36.476Z,9
2023-02-08T13:02:43.525Z,9
2023-02-08T13:03:50.651Z,9
2023-02-08T13:04:57.235Z,9
2023-02-08T13:06:04.702Z,8.9
2023-02-08T13:07:11.427Z,8.9
2023-02-08T13:08:18.558Z,8.9
2023-02-08T13:09:25.718Z,8.9
2023-02-08T13:10:32.192Z,8.9
2023-02-08T13:11:39.408Z,9
2023-02-08T13:12:46.443Z,8.9
2023-02-08T13:13:53.586Z,8.9
2023-02-08T13:15:02.833Z,8.9
2023-02-08T13:16:07.280Z,9
2023-02-08T13:17:14.327Z,8.9
2023-02-08T13:18:21.489Z,9
2023-02-08T13:19:28.658Z,8.9
2023-02-08T13:20:35.668Z,9
2023-02-08T13:21:42.756Z,8.9
2023-02-08T13:22:49.366Z,8.9
2023-02-08T13:23:56.473Z,8.9
2023-02-08T13:25:08.505Z,9
2023-02-08T13:26:10.660Z,9
2023-02-08T13:27:17.276Z,9
2023-02-08T13:28:24.484Z,9
2023-02-08T13:29:31.536Z,9
2023-02-08T13:30:40.061Z,9
2023-02-08T13:31:45.716Z,9
2023-02-08T13:32:52.235Z,9
2023-02-08T13:34:04.563Z,9.1
2023-02-08T13:35:06.656Z,9.1
2023-02-08T13:36:13.596Z,9.1
2023-02-08T13:37:25.174Z,9.1
2023-02-08T13:38:27.278Z,9.1
2023-02-08T13:39:34.417Z,9.1
2023-02-08T13:40:41.920Z,9.2
2023-02-08T13:41:48.579Z,9.2
2023-02-08T13:42:55.650Z,9.3
2023-02-08T13:44:02.271Z,9.3
2023-02-08T13:45:09.397Z,9.3
2023-02-08T13:46:16.549Z,9.3
2023-02-08T13:47:23.572Z,9.3
2023-02-08T13:48:30.852Z,9.3
2023-02-08T13:49:37.307Z,9.3
2023-02-08T13:50:44.698Z,9.3
2023-02-08T13:52:58.628Z,9.3
2023-02-08T13:54:08.320Z,9.3
2023-02-08T13:55:12.256Z,9.3
2023-02-08T13:56:19.405Z,9.3
2023-02-08T13:57:26.550Z,9.3
2023-02-08T13:58:33.587Z,9.3
2023-02-08T13:59:40.184Z,9.3
2023-02-08T14:00:47.336Z,9.3
2023-02-08T14:01:54.460Z,9.3
2023-02-08T14:03:01.550Z,9.3
2023-02-08T14:04:08.678Z,9.3
2023-02-08T14:05:15.202Z,9.3
2023-02-08T14:06:22.291Z,9.2
2023-02-08T14:07:29.414Z,9.2
2023-02-08T14:08:36.560Z,9.2
2023-02-08T14:09:43.620Z,9.1
2023-02-08T14:10:50.207Z,9.1
2023-02-08T14:11:57.330Z,9.1
2023-02-08T14:14:11.558Z,9.1
2023-02-08T14:15:18.666Z,9
2023-02-08T14:16:25.244Z,8.9
2023-02-08T14:17:32.282Z,8.8
2023-02-08T14:18:39.466Z,8.6
2023-02-08T14:19:46.586Z,8.6
2023-02-08T14:20:53.643Z,8.6
2023-02-08T14:22:00.240Z,8.5
2023-02-08T14:23:07.324Z,8.5
2023-02-08T14:24:14.516Z,8.5
2023-02-08T14:25:21.512Z,8.4
2023-02-08T14:26:28.680Z,8.4
2023-02-08T14:27:35.187Z,8.4
2023-02-08T14:28:42.298Z,8.3
2023-02-08T14:29:49.432Z,8.3
2023-02-08T14:30:56.604Z,8.2
2023-02-08T14:32:03.668Z,8.2
2023-02-08T14:33:10.253Z,8.2
2023-02-08T14:34:17.335Z,8.1
2023-02-08T14:35:24.452Z,8.1
2023-02-08T14:36:31.550Z,8.1
2023-02-08T14:37:38.624Z,8.1
2023-02-08T14:38:45.289Z,8
2023-02-08T14:39:52.357Z,8
2023-02-08T14:40:59.466Z,8.1
2023-02-08T14:42:06.586Z,8.1
2023-02-08T14:43:13.644Z,8.1
2023-02-08T14:44:20.296Z,8.1
2023-02-08T14:45:27.380Z,8.1
2023-02-08T14:46:34.472Z,8.1
2023-02-08T14:47:41.592Z,8.1
2023-02-08T14:48:48.773Z,8.1
2023-02-08T14:49:55.228Z,8.1
2023-02-08T14:51:02.349Z,8.1
2023-02-08T14:52:09.506Z,8
2023-02-08T14:53:16.606Z,8
2023-02-08T14:54:23.724Z,7.9
2023-02-08T14:56:37.368Z,8
2023-02-08T14:57:44.462Z,8
2023-02-08T14:58:51.728Z,8
2023-02-08T14:59:58.190Z,8
2023-02-08T15:01:05.307Z,7.9
2023-02-08T15:02:12.392Z,7.9
2023-02-08T15:03:19.491Z,7.9
2023-02-08T15:04:26.730Z,7.9
2023-02-08T15:05:33.698Z,7.9
2023-02-08T15:06:40.317Z,7.9
2023-02-08T15:07:47.386Z,7.9
2023-02-08T15:08:54.482Z,7.9
2023-02-08T15:10:01.751Z,7.9
2023-02-08T15:11:08.200Z,7.9
2023-02-08T15:12:15.250Z,7.8
2023-02-08T15:13:22.402Z,7.8
2023-02-08T15:14:29.726Z,7.8
2023-02-08T15:15:36.668Z,7.8
2023-02-08T15:16:43.298Z,7.8
2023-02-08T15:17:50.347Z,7.8
2023-02-08T15:18:57.415Z,7.8
2023-02-08T15:20:04.499Z,7.8
2023-02-08T15:21:11.655Z,7.8
2023-02-08T15:22:18.199Z,7.8
2023-02-08T15:23:25.298Z,7.8
2023-02-08T15:24:32.484Z,7.1
2023-02-08T15:25:39.552Z,6.3
2023-02-08T15:26:49.636Z,5.7
2023-02-08T15:27:53.244Z,5.3
2023-02-08T15:29:00.354Z,4.9
2023-02-08T15:30:07.423Z,4.8
2023-02-08T15:31:14.770Z,4.6
2023-02-08T15:32:21.677Z,4.5
2023-02-08T15:33:28.251Z,4.6
2023-02-08T15:34:35.333Z,4.6
2023-02-08T15:35:42.381Z,4.6
2023-02-08T15:36:49.846Z,4.7
2023-02-08T15:37:56.693Z,4.7
2023-02-08T15:39:03.290Z,4.7
2023-02-08T15:40:10.353Z,4.8
2023-02-08T15:42:24.550Z,4.8
2023-02-08T15:43:31.677Z,4.8
2023-02-08T15:44:38.298Z,4.8
2023-02-08T15:45:45.362Z,4.8
2023-02-08T15:47:59.710Z,4.7
2023-02-08T15:49:06.705Z,4.7
2023-02-08T15:50:13.199Z,4.7
2023-02-08T15:51:20.382Z,4.7
2023-02-08T15:52:27.486Z,4.7
2023-02-08T15:53:34.515Z,4.7
2023-02-08T15:54:41.740Z,4.6
2023-02-08T15:55:48.241Z,4.5
2023-02-08T15:56:55.347Z,4.5
2023-02-08T15:58:02.483Z,4.5
2023-02-08T16:00:16.662Z,4.4
2023-02-08T16:01:23.343Z,4.4
2023-02-08T16:02:30.424Z,4.4
2023-02-08T16:03:37.578Z,4.4
2023-02-08T16:04:44.652Z,4.4
2023-02-08T16:05:51.663Z,4.5
2023-02-08T16:06:58.275Z,4.5
2023-02-08T16:08:05.335Z,4.5
2023-02-08T16:09:12.524Z,4.5
2023-02-08T16:10:19.560Z,4.5
2023-02-08T16:11:26.711Z,4.5
2023-02-08T16:12:33.282Z,4.5
2023-02-08T16:13:40.389Z,4.5
2023-02-08T16:14:52.722Z,4.5
2023-02-08T16:16:03.773Z,4.4
2023-02-08T16:17:01.739Z,4.4
2023-02-08T16:18:08.305Z,4.4
2023-02-08T16:19:15.388Z,4.4
2023-02-08T16:20:22.523Z,4.4
2023-02-08T16:21:29.605Z,4.4
2023-02-08T16:22:36.749Z,4.4
2023-02-08T16:23:43.281Z,4.4
2023-02-08T16:24:50.421Z,4.4
2023-02-08T16:25:57.486Z,4.4